createdAt,value
2019-05-19T00:00:45.129Z,12.58
2019-05-19T00:03:14.429Z,14.15
2019-05-19T00:05:43.617Z,16.42
2019-05-19T00:08:13.774Z,13.43
2019-05-19T00:10:43.021Z,14.70
2019-05-19T00:13:12.255Z,11.75
2019-05-19T00:15:41.495Z,14.50
2019-05-19T00:18:10.680Z,13.78
2019-05-19T00:20:40.948Z,18.23
2019-05-19T00:23:10.249Z,11.97
2019-05-19T00:25:39.435Z,14.00
2019-05-19T00:28:08.668Z,17.52
2019-05-19T00:30:37.889Z,17.52
2019-05-19T00:33:07.151Z,18.95
2019-05-19T00:35:36.395Z,13.32
2019-05-19T00:38:05.610Z,15.43
2019-05-19T00:40:34.797Z,16.62
2019-05-19T00:43:04.063Z,15.60
2019-05-19T00:45:33.312Z,14.98
2019-05-19T00:48:02.591Z,17.23
2019-05-19T00:50:31.885Z,16.30
2019-05-19T00:53:01.150Z,16.45
2019-05-19T00:55:30.708Z,14.10
2019-05-19T00:57:59.976Z,18.00
2019-05-19T01:00:29.273Z,14.87
2019-05-19T01:02:58.744Z,18.25
2019-05-19T01:05:27.994Z,17.98
2019-05-19T01:07:57.173Z,17.27
2019-05-19T01:10:26.464Z,15.90
2019-05-19T01:12:55.709Z,12.05
2019-05-19T01:15:24.877Z,17.25
2019-05-19T01:17:54.188Z,16.25
2019-05-19T01:20:23.442Z,19.02
2019-05-19T01:22:52.626Z,18.32
2019-05-19T01:25:21.850Z,18.45
2019-05-19T01:27:51.024Z,17.60
2019-05-19T01:30:20.202Z,17.98
2019-05-19T01:32:49.514Z,16.67
2019-05-19T01:35:18.766Z,19.20
2019-05-19T01:37:47.931Z,17.70
2019-05-19T01:40:18.953Z,18.07
2019-05-19T01:42:48.131Z,18.37
2019-05-19T01:45:17.480Z,19.00
2019-05-19T01:47:46.708Z,16.55
2019-05-19T01:50:17.900Z,16.77
2019-05-19T01:52:46.858Z,21.70
2019-05-19T01:55:16.141Z,23.07
2019-05-19T01:57:45.380Z,21.50
2019-05-19T02:00:14.623Z,19.12
2019-05-19T02:02:43.801Z,19.37
2019-05-19T02:05:12.994Z,22.87
2019-05-19T02:07:42.245Z,16.60
2019-05-19T02:10:11.483Z,20.72
2019-05-19T02:12:40.812Z,22.90
2019-05-19T02:15:10.108Z,20.70
2019-05-19T02:17:39.285Z,19.55
2019-05-19T02:20:08.552Z,18.77
2019-05-19T02:22:37.829Z,20.37
2019-05-19T02:25:07.250Z,20.27
2019-05-19T02:27:36.544Z,19.23
2019-05-19T02:30:09.920Z,20.32
2019-05-19T02:32:39.167Z,21.12
2019-05-19T02:35:08.386Z,20.70
2019-05-19T02:37:37.571Z,16.15
2019-05-19T02:40:06.917Z,17.90
2019-05-19T02:42:38.125Z,14.80
2019-05-19T02:45:07.880Z,18.52
2019-05-19T02:47:38.559Z,18.70
2019-05-19T02:50:08.500Z,15.20
2019-05-19T02:52:37.669Z,16.45
2019-05-19T02:55:07.717Z,15.10
2019-05-19T02:57:37.395Z,15.58
2019-05-19T03:00:10.008Z,16.57
2019-05-19T03:02:39.185Z,18.35
2019-05-19T03:05:08.375Z,16.15
2019-05-19T03:07:37.728Z,19.77
2019-05-19T03:10:07.041Z,25.15
2019-05-19T03:12:36.289Z,26.57
2019-05-19T03:15:06.387Z,57.80
2019-05-19T03:17:35.567Z,27.50
2019-05-19T03:20:06.254Z,22.35
2019-05-19T03:22:35.494Z,20.68
2019-05-19T03:25:06.363Z,16.82
2019-05-19T03:27:35.618Z,17.75
2019-05-19T03:30:27.854Z,14.63
2019-05-19T03:33:01.673Z,17.15
2019-05-19T03:35:30.923Z,16.42
2019-05-19T03:38:00.153Z,16.80
2019-05-19T03:40:29.394Z,12.03
2019-05-19T03:42:58.567Z,15.53
2019-05-19T03:45:27.828Z,13.22
2019-05-19T03:47:57.080Z,14.40
2019-05-19T03:50:26.274Z,14.50
2019-05-19T03:52:55.453Z,12.60
2019-05-19T03:55:24.742Z,13.53
2019-05-19T03:57:53.973Z,14.13
2019-05-19T04:00:23.202Z,16.02
2019-05-19T04:02:52.380Z,11.85
2019-05-19T04:05:21.555Z,15.75
2019-05-19T04:07:50.904Z,12.50
2019-05-19T04:10:20.181Z,12.58
2019-05-19T04:12:49.432Z,13.25
2019-05-19T04:15:18.599Z,14.33
2019-05-19T04:17:47.830Z,12.45
2019-05-19T04:20:17.079Z,13.53
2019-05-19T04:22:46.246Z,12.90
2019-05-19T04:25:15.440Z,12.80
2019-05-19T04:27:44.712Z,14.85
2019-05-19T04:30:13.887Z,14.20
2019-05-19T04:32:43.250Z,15.50
2019-05-19T04:35:12.671Z,14.55
2019-05-19T04:37:41.903Z,11.93
2019-05-19T04:40:11.100Z,16.40
2019-05-19T04:42:40.454Z,13.70
2019-05-19T04:45:09.768Z,15.48
2019-05-19T04:47:39.267Z,13.08
2019-05-19T04:50:27.933Z,13.90
2019-05-19T04:52:57.115Z,18.45
2019-05-19T04:55:26.496Z,14.63
2019-05-19T04:57:55.789Z,15.60
2019-05-19T05:00:25.185Z,17.27
2019-05-19T05:02:54.413Z,14.60
2019-05-19T05:05:23.633Z,18.95
2019-05-19T05:07:52.849Z,14.58
2019-05-19T05:10:22.238Z,16.40
2019-05-19T05:12:51.464Z,17.30
2019-05-19T05:15:20.863Z,16.20
2019-05-19T05:17:50.032Z,13.68
2019-05-19T05:20:19.275Z,16.97
2019-05-19T05:22:48.592Z,16.62
2019-05-19T05:25:18.303Z,13.58
2019-05-19T05:27:47.509Z,18.75
2019-05-19T05:30:16.785Z,19.75
2019-05-19T05:32:46.093Z,17.87
2019-05-19T05:35:15.507Z,16.50
2019-05-19T05:37:44.675Z,16.12
2019-05-19T05:40:13.907Z,19.12
2019-05-19T05:42:43.083Z,18.52
2019-05-19T05:45:12.528Z,15.60
2019-05-19T05:47:41.727Z,13.90
2019-05-19T05:50:11.227Z,13.70
2019-05-19T05:52:40.421Z,38.50
2019-05-19T05:55:09.663Z,21.62
2019-05-19T05:57:38.900Z,18.10
2019-05-19T06:00:09.099Z,12.85
2019-05-19T06:02:38.420Z,15.83
2019-05-19T06:05:07.697Z,14.10
2019-05-19T06:07:36.883Z,12.70
2019-05-19T06:10:07.737Z,10.82
2019-05-19T06:12:36.971Z,13.20
2019-05-19T06:15:06.138Z,11.70
2019-05-19T06:17:35.411Z,13.43
2019-05-19T06:20:06.972Z,11.50
2019-05-19T06:22:36.481Z,9.63
2019-05-19T06:25:05.992Z,11.38
2019-05-19T06:27:35.211Z,8.55
2019-05-19T06:30:08.480Z,11.22
2019-05-19T06:32:50.236Z,12.28
2019-05-19T06:35:19.420Z,11.63
2019-05-19T06:37:48.678Z,12.95
2019-05-19T06:40:17.959Z,11.00
2019-05-19T06:42:47.150Z,12.25
2019-05-19T06:45:16.321Z,15.43
2019-05-19T06:47:45.609Z,12.80
2019-05-19T06:50:15.000Z,12.03
2019-05-19T06:52:44.177Z,10.90
2019-05-19T06:55:14.330Z,14.23
2019-05-19T06:57:43.631Z,12.15
2019-05-19T07:00:13.126Z,13.25
2019-05-19T07:02:42.291Z,10.43
2019-05-19T07:05:11.676Z,11.57
2019-05-19T07:07:41.516Z,11.00
2019-05-19T07:10:10.986Z,10.38
2019-05-19T07:12:40.402Z,8.35
2019-05-19T07:15:09.838Z,8.68
2019-05-19T07:17:39.208Z,9.73
2019-05-19T07:20:08.520Z,9.18
2019-05-19T07:22:37.909Z,9.75
2019-05-19T07:25:07.354Z,12.45
2019-05-19T07:27:36.532Z,11.50
2019-05-19T07:30:06.539Z,8.65
2019-05-19T07:32:35.721Z,13.95
2019-05-19T07:35:06.270Z,11.80
2019-05-19T07:37:35.510Z,15.48
2019-05-19T07:40:05.622Z,13.75
2019-05-19T07:42:34.932Z,16.42
2019-05-19T07:45:05.173Z,11.33
2019-05-19T07:47:34.634Z,12.95
2019-05-19T07:50:04.786Z,11.22
2019-05-19T07:52:34.075Z,14.40
2019-05-19T07:55:04.148Z,10.00
2019-05-19T07:57:33.475Z,11.15
2019-05-19T08:00:02.986Z,10.70
2019-05-19T08:02:32.456Z,10.72
2019-05-19T08:05:01.728Z,11.93
2019-05-19T08:07:30.867Z,11.85
2019-05-19T08:10:00.181Z,11.22
2019-05-19T08:12:29.353Z,12.65
2019-05-19T08:14:58.590Z,13.18
2019-05-19T08:17:27.876Z,16.05
2019-05-19T08:19:57.151Z,15.98
2019-05-19T08:22:26.458Z,14.90
2019-05-19T08:24:55.716Z,13.45
2019-05-19T08:27:25.091Z,10.90
2019-05-19T08:29:55.200Z,12.18
2019-05-19T08:32:24.479Z,11.90
2019-05-19T08:34:53.766Z,12.82
2019-05-19T08:37:22.957Z,15.15
2019-05-19T08:39:52.136Z,19.70
2019-05-19T08:42:21.347Z,11.88
2019-05-19T08:44:50.693Z,10.25
2019-05-19T08:47:20.003Z,12.80
2019-05-19T08:49:49.287Z,14.20
2019-05-19T08:52:18.532Z,12.33
2019-05-19T08:54:47.834Z,11.12
2019-05-19T08:57:17.091Z,11.48
2019-05-19T08:59:46.351Z,12.45
2019-05-19T09:02:15.683Z,10.23
2019-05-19T09:04:44.849Z,10.98
2019-05-19T09:07:14.056Z,12.00
2019-05-19T09:09:43.272Z,9.90
2019-05-19T09:12:12.553Z,10.48
2019-05-19T09:14:41.719Z,9.85
2019-05-19T09:17:10.920Z,8.10
2019-05-19T09:19:40.212Z,9.63
2019-05-19T09:22:09.463Z,9.23
2019-05-19T09:24:38.637Z,8.18
2019-05-19T09:27:07.867Z,11.65
2019-05-19T09:29:37.105Z,7.90
2019-05-19T09:32:06.380Z,10.28
2019-05-19T09:34:35.622Z,7.67
2019-05-19T09:37:04.878Z,7.90
2019-05-19T09:39:34.169Z,8.70
2019-05-19T09:42:03.343Z,7.85
2019-05-19T09:44:32.650Z,9.00
2019-05-19T09:47:02.024Z,10.55
2019-05-19T09:49:37.134Z,11.73
2019-05-19T09:52:06.438Z,9.40
2019-05-19T09:54:44.783Z,10.30
2019-05-19T09:57:06.666Z,10.63
2019-05-19T09:59:36.326Z,11.80
2019-05-19T10:02:05.591Z,12.58
2019-05-19T10:04:34.864Z,13.95
2019-05-19T10:07:05.309Z,11.48
2019-05-19T10:09:53.969Z,15.38
2019-05-19T10:12:23.519Z,13.78
2019-05-19T10:14:52.868Z,15.65
2019-05-19T10:17:22.114Z,14.15
2019-05-19T10:19:51.435Z,14.68
2019-05-19T10:22:20.845Z,14.98
2019-05-19T10:25:10.222Z,17.25
2019-05-19T10:27:21.849Z,16.67
2019-05-19T10:29:51.216Z,15.43
2019-05-19T10:32:20.394Z,12.37
2019-05-19T10:34:49.677Z,14.80
2019-05-19T10:37:19.293Z,13.93
2019-05-19T10:39:48.568Z,13.43
2019-05-19T10:42:17.864Z,12.43
2019-05-19T10:44:47.372Z,11.12
2019-05-19T10:47:16.562Z,12.82
2019-05-19T10:49:45.927Z,12.45
2019-05-19T10:52:15.164Z,12.33
2019-05-19T10:54:44.344Z,12.50
2019-05-19T10:57:13.621Z,11.90
2019-05-19T10:59:42.922Z,12.68
2019-05-19T11:02:12.377Z,11.30
2019-05-19T11:04:42.090Z,10.88
2019-05-19T11:07:11.339Z,13.10
2019-05-19T11:09:40.508Z,9.98
2019-05-19T11:12:09.723Z,10.23
2019-05-19T11:14:38.907Z,11.83
2019-05-19T11:17:08.095Z,11.18
2019-05-19T11:19:37.320Z,10.20
2019-05-19T11:22:06.794Z,12.15
2019-05-19T11:24:35.979Z,10.38
2019-05-19T11:27:05.257Z,7.90
2019-05-19T11:29:34.499Z,8.38
2019-05-19T11:32:03.817Z,10.58
2019-05-19T11:34:33.112Z,11.65
2019-05-19T11:37:02.414Z,9.20
2019-05-19T11:39:31.583Z,10.75
2019-05-19T11:42:00.854Z,11.78
2019-05-19T11:44:30.052Z,12.37
2019-05-19T11:46:59.279Z,13.28
2019-05-19T11:49:28.447Z,11.88
2019-05-19T11:51:57.705Z,12.82
2019-05-19T11:54:26.915Z,12.35
2019-05-19T11:56:56.082Z,11.12
2019-05-19T11:59:25.393Z,10.45
2019-05-19T12:01:54.558Z,9.28
2019-05-19T12:04:23.740Z,12.50
2019-05-19T12:06:52.950Z,14.20
2019-05-19T12:09:22.205Z,9.00
2019-05-19T12:11:51.462Z,11.10
2019-05-19T12:14:20.685Z,9.28
2019-05-19T12:16:50.006Z,8.23
2019-05-19T12:19:19.204Z,7.87
2019-05-19T12:21:48.404Z,7.35
2019-05-19T12:24:17.886Z,9.33
2019-05-19T12:26:47.063Z,8.38
2019-05-19T12:29:16.538Z,8.88
2019-05-19T12:31:45.707Z,8.78
2019-05-19T12:34:15.014Z,7.50
2019-05-19T12:36:44.349Z,9.60
2019-05-19T12:39:13.608Z,8.85
2019-05-19T12:41:42.902Z,6.80
2019-05-19T12:44:12.166Z,7.95
2019-05-19T12:46:41.410Z,8.73
2019-05-19T12:49:10.630Z,7.62
2019-05-19T12:51:39.882Z,7.92
2019-05-19T12:54:09.056Z,8.00
2019-05-19T12:56:40.033Z,6.70
2019-05-19T12:59:09.148Z,5.25
2019-05-19T13:01:38.421Z,6.92
2019-05-19T13:04:07.579Z,8.35
2019-05-19T13:06:37.274Z,11.15
2019-05-19T13:09:07.304Z,8.75
2019-05-19T13:11:36.547Z,11.20
2019-05-19T13:14:07.204Z,10.50
2019-05-19T13:16:36.444Z,9.60
2019-05-19T13:19:05.683Z,8.75
2019-05-19T13:21:35.100Z,8.58
2019-05-19T13:24:04.412Z,8.25
2019-05-19T13:26:33.754Z,8.03
2019-05-19T13:29:03.196Z,7.37
2019-05-19T13:31:32.640Z,7.33
2019-05-19T13:34:02.091Z,8.48
2019-05-19T13:36:31.553Z,7.33
2019-05-19T13:39:00.943Z,6.72
2019-05-19T13:41:30.248Z,8.55
2019-05-19T13:43:59.866Z,8.30
2019-05-19T13:46:29.447Z,8.60
2019-05-19T13:48:58.810Z,7.90
2019-05-19T13:51:28.067Z,10.03
2019-05-19T13:53:57.304Z,7.87
2019-05-19T13:56:26.849Z,9.20
2019-05-19T13:58:56.241Z,7.22
2019-05-19T14:01:28.667Z,6.20
2019-05-19T14:03:57.218Z,5.83
2019-05-19T14:06:28.467Z,9.95
2019-05-19T14:08:57.995Z,8.20
2019-05-19T14:11:27.616Z,8.88
2019-05-19T14:13:57.329Z,7.55
2019-05-19T14:16:26.663Z,10.82
2019-05-19T14:18:55.912Z,7.40
2019-05-19T14:21:25.547Z,10.53
2019-05-19T14:23:54.896Z,10.40
2019-05-19T14:26:24.267Z,7.75
2019-05-19T14:28:53.892Z,10.58
2019-05-19T14:31:23.334Z,8.03
2019-05-19T14:33:52.707Z,13.15
2019-05-19T14:36:22.059Z,13.22
2019-05-19T14:39:05.092Z,4.92
2019-05-19T14:41:33.993Z,8.48
2019-05-19T14:44:05.053Z,8.68
2019-05-19T14:46:35.681Z,6.47
2019-05-19T14:49:05.593Z,5.15
2019-05-19T14:51:36.842Z,7.72
2019-05-19T14:54:06.369Z,5.42
2019-05-19T14:56:38.511Z,6.90
2019-05-19T14:59:12.568Z,6.33
2019-05-19T15:01:41.959Z,4.90
2019-05-19T15:04:11.499Z,6.00
2019-05-19T15:06:40.889Z,4.37
2019-05-19T15:09:11.962Z,5.60
2019-05-19T15:11:41.361Z,6.67
2019-05-19T15:14:10.910Z,4.72
2019-05-19T15:16:40.083Z,6.75
2019-05-19T15:19:09.418Z,4.45
2019-05-19T15:21:38.718Z,7.87
2019-05-19T15:24:08.304Z,5.92
2019-05-19T15:26:37.618Z,5.65
2019-05-19T15:29:06.948Z,6.08
2019-05-19T15:31:36.219Z,5.25
2019-05-19T15:34:05.603Z,5.97
2019-05-19T15:36:34.932Z,4.47
2019-05-19T15:39:04.888Z,5.72
2019-05-19T15:41:34.348Z,4.03
2019-05-19T15:44:03.661Z,4.45
2019-05-19T15:46:33.182Z,4.53
2019-05-19T15:49:02.574Z,4.42
2019-05-19T15:51:37.362Z,7.33
2019-05-19T15:54:04.224Z,8.57
2019-05-19T15:56:33.509Z,5.17
2019-05-19T15:59:02.978Z,3.98
2019-05-19T16:01:32.570Z,10.70
2019-05-19T16:04:02.049Z,8.25
2019-05-19T16:06:31.603Z,6.80
2019-05-19T16:09:01.000Z,7.83
2019-05-19T16:11:30.323Z,6.17
2019-05-19T16:13:59.766Z,6.85
2019-05-19T16:16:29.153Z,6.53
2019-05-19T16:18:58.586Z,7.45
2019-05-19T16:21:28.022Z,6.15
2019-05-19T16:23:57.390Z,5.00
2019-05-19T16:26:26.790Z,4.78
2019-05-19T16:28:56.171Z,6.95
2019-05-19T16:31:25.491Z,6.30
2019-05-19T16:33:54.955Z,6.72
2019-05-19T16:36:24.352Z,4.50
2019-05-19T16:38:53.751Z,4.62
2019-05-19T16:41:24.112Z,5.25
2019-05-19T16:43:53.350Z,6.42
2019-05-19T16:46:25.518Z,6.03
2019-05-19T16:48:54.778Z,5.17
2019-05-19T16:51:24.233Z,6.67
2019-05-19T16:53:55.201Z,9.53
2019-05-19T16:56:24.755Z,10.78
2019-05-19T16:58:54.076Z,9.43
2019-05-19T17:01:23.557Z,6.90
2019-05-19T17:03:52.886Z,7.37
2019-05-19T17:06:22.208Z,8.50
2019-05-19T17:08:51.514Z,7.20
2019-05-19T17:11:20.830Z,10.72
2019-05-19T17:13:50.250Z,6.50
2019-05-19T17:16:20.069Z,8.93
2019-05-19T17:18:49.335Z,9.03
2019-05-19T17:21:18.976Z,9.35
2019-05-19T17:23:48.398Z,8.18
2019-05-19T17:26:17.772Z,9.28
2019-05-19T17:28:59.872Z,8.88
2019-05-19T17:31:18.533Z,7.67
2019-05-19T17:33:47.819Z,6.78
2019-05-19T17:36:17.189Z,8.65
2019-05-19T17:38:46.606Z,8.33
2019-05-19T17:41:15.883Z,6.37
2019-05-19T17:43:45.643Z,6.47
2019-05-19T17:46:15.064Z,5.85
2019-05-19T17:48:44.459Z,7.55
2019-05-19T17:51:14.224Z,9.13
2019-05-19T17:53:43.584Z,10.95
2019-05-19T17:56:12.984Z,8.95
2019-05-19T17:58:42.349Z,6.78
2019-05-19T18:01:11.609Z,8.53
2019-05-19T18:03:41.223Z,8.25
2019-05-19T18:06:10.676Z,10.70
2019-05-19T18:08:40.074Z,10.63
2019-05-19T18:11:09.525Z,9.28
2019-05-19T18:13:38.857Z,35.03
2019-05-19T18:16:08.259Z,52.83
2019-05-19T18:18:37.584Z,28.77
2019-05-19T18:21:07.186Z,20.45
2019-05-19T18:23:36.495Z,13.50
2019-05-19T18:26:07.382Z,20.72
2019-05-19T18:28:36.865Z,14.10
2019-05-19T18:31:06.225Z,11.38
2019-05-19T18:33:35.391Z,11.95
2019-05-19T18:36:04.834Z,12.45
2019-05-19T18:38:34.249Z,11.05
2019-05-19T18:41:03.621Z,11.60
2019-05-19T18:43:33.117Z,16.70
2019-05-19T18:46:04.001Z,23.52
2019-05-19T18:48:33.598Z,15.15
2019-05-19T18:51:02.968Z,11.90
2019-05-19T18:53:32.456Z,11.93
2019-05-19T18:56:01.766Z,20.23
2019-05-19T18:58:31.031Z,12.60
2019-05-19T19:01:00.409Z,21.48
2019-05-19T19:03:29.660Z,32.28
2019-05-19T19:05:59.067Z,21.85
2019-05-19T19:08:28.480Z,15.60
2019-05-19T19:10:57.746Z,21.00
2019-05-19T19:13:26.995Z,22.65
2019-05-19T19:15:56.306Z,19.73
2019-05-19T19:18:25.766Z,15.40
2019-05-19T19:20:55.148Z,15.63
2019-05-19T19:23:26.314Z,11.08
2019-05-19T19:25:55.668Z,9.78
2019-05-19T19:28:25.113Z,8.65
2019-05-19T19:30:54.419Z,9.90
2019-05-19T19:33:23.648Z,9.45
2019-05-19T19:35:52.838Z,11.97
2019-05-19T19:38:22.157Z,9.13
2019-05-19T19:40:54.084Z,11.18
2019-05-19T19:43:23.911Z,10.28
2019-05-19T19:45:53.154Z,10.55
2019-05-19T19:48:22.391Z,10.30
2019-05-19T19:50:51.566Z,9.28
2019-05-19T19:53:20.778Z,8.40
2019-05-19T19:55:49.999Z,9.95
2019-05-19T19:58:19.173Z,8.80
2019-05-19T20:00:50.223Z,12.47
2019-05-19T20:03:19.507Z,11.10
2019-05-19T20:05:48.680Z,11.35
2019-05-19T20:08:17.862Z,11.97
2019-05-19T20:10:47.211Z,10.93
2019-05-19T20:13:16.598Z,24.20
2019-05-19T20:15:45.828Z,23.12
2019-05-19T20:18:16.550Z,46.50
2019-05-19T20:20:45.884Z,66.67
2019-05-19T20:23:15.128Z,45.58
2019-05-19T20:25:44.534Z,27.27
2019-05-19T20:28:13.858Z,53.85
2019-05-19T20:30:45.407Z,24.00
2019-05-19T20:33:14.597Z,17.42
2019-05-19T20:35:43.809Z,25.05
2019-05-19T20:38:13.087Z,16.50
2019-05-19T20:40:43.078Z,23.77
2019-05-19T20:43:12.436Z,22.22
2019-05-19T20:45:41.723Z,34.23
2019-05-19T20:48:11.026Z,18.20
2019-05-19T20:50:40.267Z,41.25
2019-05-19T20:53:10.003Z,30.43
2019-05-19T20:55:39.202Z,33.25
2019-05-19T20:58:08.384Z,30.43
2019-05-19T21:00:49.375Z,36.60
2019-05-19T21:03:08.636Z,24.77
2019-05-19T21:05:38.650Z,26.57
2019-05-19T21:08:07.845Z,23.10
2019-05-19T21:10:37.198Z,24.05
2019-05-19T21:13:06.456Z,14.55
2019-05-19T21:15:35.764Z,15.10
2019-05-19T21:18:05.384Z,15.50
2019-05-19T21:20:34.575Z,19.23
2019-05-19T21:23:03.779Z,18.25
2019-05-19T21:25:32.957Z,21.50
2019-05-19T21:28:02.255Z,15.43
2019-05-19T21:30:31.495Z,12.73
2019-05-19T21:33:00.733Z,14.53
2019-05-19T21:35:30.056Z,16.67
2019-05-19T21:37:59.371Z,12.20
2019-05-19T21:40:28.555Z,17.37
2019-05-19T21:42:57.910Z,16.00
2019-05-19T21:45:27.157Z,13.15
2019-05-19T21:47:56.381Z,19.73
2019-05-19T21:50:25.636Z,15.00
2019-05-19T21:52:54.897Z,15.03
2019-05-19T21:55:24.265Z,11.55
2019-05-19T21:57:53.520Z,17.48
2019-05-19T22:00:24.338Z,12.75
2019-05-19T22:02:53.636Z,10.20
2019-05-19T22:05:22.880Z,13.50
2019-05-19T22:07:56.717Z,14.87
2019-05-19T22:10:26.014Z,15.45
2019-05-19T22:12:55.246Z,16.67
2019-05-19T22:15:24.725Z,13.70
2019-05-19T22:17:53.951Z,18.27
2019-05-19T22:20:23.252Z,16.45
2019-05-19T22:22:52.751Z,14.50
2019-05-19T22:25:22.040Z,15.08
2019-05-19T22:27:51.291Z,15.90
2019-05-19T22:30:20.585Z,18.67
2019-05-19T22:32:49.842Z,13.18
2019-05-19T22:35:19.113Z,16.70
2019-05-19T22:37:48.381Z,13.08
2019-05-19T22:40:17.635Z,14.40
2019-05-19T22:42:46.861Z,15.20
2019-05-19T22:45:16.112Z,13.58
2019-05-19T22:47:45.394Z,15.83
2019-05-19T22:50:14.726Z,13.18
2019-05-19T22:52:44.157Z,14.40
2019-05-19T22:55:13.491Z,18.73
2019-05-19T22:57:42.913Z,14.53
2019-05-19T23:00:12.819Z,15.00
2019-05-19T23:02:42.010Z,15.48
2019-05-19T23:05:11.397Z,13.90
2019-05-19T23:07:40.787Z,16.05
2019-05-19T23:10:10.174Z,16.77
2019-05-19T23:12:39.572Z,14.35
2019-05-19T23:15:10.039Z,15.45
2019-05-19T23:17:39.301Z,16.17
2019-05-19T23:20:08.483Z,16.45
2019-05-19T23:22:37.852Z,13.72
2019-05-19T23:25:07.120Z,19.70
2019-05-19T23:27:36.363Z,17.87
2019-05-19T23:30:07.439Z,31.65
2019-05-19T23:32:36.620Z,29.95
2019-05-19T23:35:08.326Z,16.87
2019-05-19T23:37:37.506Z,15.50
2019-05-19T23:40:09.632Z,18.60
2019-05-19T23:45:08.539Z,15.72
2019-05-19T23:47:37.792Z,19.75
2019-05-19T23:50:07.364Z,19.82
2019-05-19T23:52:36.529Z,14.18
2019-05-19T23:55:06.707Z,17.52
2019-05-19T23:57:35.990Z,15.18
